createdAt,value
2019-04-05T00:01:04.423Z,1.91
2019-04-05T00:03:34.919Z,1.85
2019-04-05T00:06:05.860Z,1.75
2019-04-05T00:08:36.846Z,1.62
2019-04-05T00:11:07.530Z,1.68
2019-04-05T00:13:38.366Z,1.62
2019-04-05T00:16:10.025Z,1.75
2019-04-05T00:18:40.651Z,1.74
2019-04-05T00:21:11.386Z,1.71
2019-04-05T00:23:42.221Z,1.83
2019-04-05T00:26:13.056Z,1.96
2019-04-05T00:28:43.486Z,2.03
2019-04-05T00:31:14.315Z,2.20
2019-04-05T00:33:45.148Z,2.35
2019-04-05T00:36:15.580Z,2.42
2019-04-05T00:38:46.521Z,2.49
2019-04-05T00:41:17.454Z,2.59
2019-04-05T00:43:48.398Z,2.70
2019-04-05T00:46:19.275Z,2.65
2019-04-05T00:48:50.070Z,2.65
2019-04-05T00:51:20.899Z,2.66
2019-04-05T00:53:51.946Z,2.68
2019-04-05T00:56:22.792Z,2.82
2019-04-05T00:58:53.527Z,2.81
2019-04-05T01:01:23.939Z,3.02
2019-04-05T01:03:54.875Z,3.40
2019-04-05T01:06:25.404Z,3.01
2019-04-05T01:08:56.342Z,2.93
2019-04-05T01:11:27.287Z,3.03
2019-04-05T01:13:58.839Z,3.64
2019-04-05T01:16:29.199Z,3.44
2019-04-05T01:18:59.997Z,3.41
2019-04-05T01:21:34.313Z,3.30
2019-04-05T01:24:05.460Z,3.19
2019-04-05T01:26:36.109Z,3.55
2019-04-05T01:29:06.828Z,3.38
2019-04-05T01:31:37.465Z,3.65
2019-04-05T01:34:08.393Z,3.55
2019-04-05T01:36:39.226Z,3.50
2019-04-05T01:39:10.064Z,3.68
2019-04-05T01:41:40.898Z,3.53
2019-04-05T01:44:11.781Z,3.84
2019-04-05T01:46:42.569Z,3.63
2019-04-05T01:49:13.305Z,3.62
2019-04-05T01:51:43.946Z,3.44
2019-04-05T01:54:14.669Z,3.52
2019-04-05T01:56:46.122Z,3.18
2019-04-05T01:59:17.058Z,3.01
2019-04-05T02:01:48.002Z,3.09
2019-04-05T02:04:18.837Z,3.23
2019-04-05T02:06:49.566Z,3.21
2019-04-05T02:09:20.508Z,3.59
2019-04-05T02:11:54.208Z,3.39
2019-04-05T02:14:25.141Z,3.36
2019-04-05T02:16:56.083Z,3.50
2019-04-05T02:19:26.612Z,3.34
2019-04-05T02:21:57.550Z,3.34
2019-04-05T02:24:28.398Z,3.27
2019-04-05T02:26:59.537Z,3.14
2019-04-05T02:29:30.037Z,3.11
2019-04-05T02:32:01.012Z,3.18
2019-04-05T02:34:33.706Z,3.40
2019-04-05T02:37:04.617Z,3.40
2019-04-05T02:39:35.463Z,3.46
2019-04-05T02:42:06.286Z,3.85
2019-04-05T02:44:37.129Z,3.89
2019-04-05T02:47:07.957Z,3.52
2019-04-05T02:49:38.795Z,3.53
2019-04-05T02:52:09.542Z,3.90
2019-04-05T02:54:40.571Z,3.79
2019-04-05T02:57:11.503Z,3.55
2019-04-05T02:59:42.348Z,3.28
2019-04-05T03:02:13.077Z,3.16
2019-04-05T03:04:43.750Z,3.22
2019-04-05T03:07:17.313Z,2.86
2019-04-05T03:09:48.571Z,2.92
2019-04-05T03:12:19.351Z,2.75
2019-04-05T03:14:50.405Z,2.45
2019-04-05T03:17:21.176Z,2.37
2019-04-05T03:19:52.412Z,2.54
2019-04-05T03:22:22.839Z,2.74
2019-04-05T03:24:53.674Z,2.72
2019-04-05T03:27:30.149Z,2.67
2019-04-05T03:30:00.895Z,2.93
2019-04-05T03:32:32.053Z,3.17
2019-04-05T03:35:02.790Z,3.01
2019-04-05T03:37:33.224Z,3.28
2019-04-05T03:40:04.943Z,3.45
2019-04-05T03:42:35.326Z,3.52
2019-04-05T03:45:07.218Z,3.71
2019-04-05T03:47:37.681Z,3.75
2019-04-05T03:50:08.094Z,3.93
2019-04-05T03:52:38.535Z,3.92
2019-04-05T03:55:09.340Z,3.91
2019-04-05T03:57:40.492Z,3.79
2019-04-05T04:00:11.304Z,3.61
2019-04-05T04:02:42.262Z,3.54
2019-04-05T04:05:13.203Z,3.56
2019-04-05T04:07:44.132Z,3.44
2019-04-05T04:10:19.167Z,3.34
2019-04-05T04:12:50.314Z,3.22
2019-04-05T04:15:21.249Z,3.04
2019-04-05T04:17:52.091Z,3.08
2019-04-05T04:20:26.028Z,3.19
2019-04-05T04:22:56.529Z,3.07
2019-04-05T04:25:27.871Z,3.05
2019-04-05T04:27:58.281Z,3.09
2019-04-05T04:30:29.843Z,3.25
2019-04-05T04:33:01.298Z,3.45
2019-04-05T04:35:32.029Z,3.51
2019-04-05T04:38:02.566Z,4.40
2019-04-05T04:40:33.308Z,5.94
2019-04-05T04:43:05.667Z,6.95
2019-04-05T04:45:36.394Z,7.88
2019-04-05T04:48:07.236Z,8.27
2019-04-05T04:50:38.173Z,8.19
2019-04-05T04:53:09.208Z,8.69
2019-04-05T04:55:39.776Z,8.79
2019-04-05T04:58:10.578Z,9.11
2019-04-05T05:00:41.512Z,8.97
2019-04-05T05:03:12.350Z,8.75
2019-04-05T05:05:43.289Z,9.89
2019-04-05T05:08:14.438Z,9.33
2019-04-05T05:10:45.373Z,9.27
2019-04-05T05:13:15.806Z,9.36
2019-04-05T05:15:46.741Z,9.31
2019-04-05T05:18:17.575Z,9.73
2019-04-05T05:20:48.510Z,10.01
2019-04-05T05:23:20.370Z,9.70
2019-04-05T05:25:51.219Z,10.18
2019-04-05T05:28:21.868Z,10.25
2019-04-05T05:30:52.672Z,9.84
2019-04-05T05:33:23.516Z,9.85
2019-04-05T05:35:54.446Z,9.98
2019-04-05T05:38:25.594Z,10.60
2019-04-05T05:40:56.337Z,10.91
2019-04-05T05:43:27.161Z,9.87
2019-04-05T05:45:57.995Z,9.10
2019-04-05T05:48:30.893Z,8.58
2019-04-05T05:51:01.205Z,8.02
2019-04-05T05:53:32.146Z,8.14
2019-04-05T05:56:03.179Z,8.39
2019-04-05T05:58:34.123Z,8.22
2019-04-05T06:01:04.959Z,8.41
2019-04-05T06:03:35.899Z,7.93
2019-04-05T06:06:06.839Z,8.09
2019-04-05T06:08:37.574Z,8.34
2019-04-05T06:11:08.410Z,8.09
2019-04-05T06:13:39.340Z,8.37
2019-04-05T06:16:09.870Z,8.31
2019-04-05T06:18:41.729Z,8.20
2019-04-05T06:21:13.493Z,8.40
2019-04-05T06:23:44.223Z,8.62
2019-04-05T06:26:14.967Z,8.67
2019-04-05T06:28:46.290Z,8.89
2019-04-05T06:31:20.417Z,8.81
2019-04-05T06:33:51.356Z,8.69
2019-04-05T06:36:22.190Z,8.84
2019-04-05T06:38:53.130Z,8.85
2019-04-05T06:41:23.969Z,9.16
2019-04-05T06:43:54.903Z,9.22
2019-04-05T06:46:25.742Z,9.36
2019-04-05T06:48:56.574Z,9.20
2019-04-05T06:51:27.514Z,9.21
2019-04-05T06:53:58.449Z,9.20
2019-04-05T06:56:29.296Z,9.22
2019-04-05T06:59:00.125Z,9.33
2019-04-05T07:01:31.063Z,9.29
2019-04-05T07:04:02.918Z,9.35
2019-04-05T07:06:33.656Z,9.15
2019-04-05T07:09:05.823Z,9.42
2019-04-05T07:11:36.227Z,9.63
2019-04-05T07:14:07.093Z,9.76
2019-04-05T07:16:37.828Z,9.78
2019-04-05T07:19:08.652Z,9.55
2019-04-05T07:21:39.592Z,9.56
2019-04-05T07:24:10.426Z,9.56
2019-04-05T07:26:41.170Z,9.65
2019-04-05T07:29:11.995Z,9.78
2019-04-05T07:31:42.940Z,9.91
2019-04-05T07:34:13.781Z,9.91
2019-04-05T07:36:44.609Z,9.91
2019-04-05T07:39:15.547Z,9.84
2019-04-05T07:41:46.287Z,9.79
2019-04-05T07:44:17.019Z,9.81
2019-04-05T07:46:47.827Z,9.81
2019-04-05T07:49:18.687Z,9.99
2019-04-05T07:51:49.835Z,10.09
2019-04-05T07:54:20.572Z,10.04
2019-04-05T07:56:51.289Z,9.91
2019-04-05T07:59:22.442Z,9.79
2019-04-05T08:01:52.870Z,10.03
2019-04-05T08:04:23.707Z,9.76
2019-04-05T08:06:56.004Z,10.14
2019-04-05T08:09:26.715Z,10.17
2019-04-05T08:11:57.646Z,10.47
2019-04-05T08:14:28.480Z,10.60
2019-04-05T08:16:59.239Z,10.62
2019-04-05T08:19:30.354Z,10.72
2019-04-05T08:22:01.087Z,10.33
2019-04-05T08:24:32.026Z,10.39
2019-04-05T08:27:02.798Z,10.30
2019-04-05T08:29:33.595Z,10.19
2019-04-05T08:32:14.423Z,10.09
2019-04-05T08:34:37.110Z,10.36
2019-04-05T08:37:07.982Z,10.43
2019-04-05T08:39:38.798Z,10.47
2019-04-05T08:42:11.055Z,10.58
2019-04-05T08:44:43.221Z,10.26
2019-04-05T08:47:13.871Z,10.61
2019-04-05T08:49:44.692Z,10.58
2019-04-05T08:52:15.409Z,10.59
2019-04-05T08:54:46.365Z,10.50
2019-04-05T08:57:17.201Z,10.38
2019-04-05T08:59:48.035Z,10.52
2019-04-05T09:02:18.670Z,10.73
2019-04-05T09:04:49.632Z,10.52
2019-04-05T09:07:20.264Z,10.70
2019-04-05T09:09:51.182Z,10.98
2019-04-05T09:12:21.943Z,10.88
2019-04-05T09:14:52.842Z,10.95
2019-04-05T09:17:23.759Z,10.96
2019-04-05T09:19:54.636Z,10.75
2019-04-05T09:22:25.451Z,10.69
2019-04-05T09:24:56.119Z,10.61
2019-04-05T09:27:27.042Z,10.73
2019-04-05T09:29:57.931Z,10.89
2019-04-05T09:32:29.004Z,11.01
2019-04-05T09:34:59.939Z,10.93
2019-04-05T09:37:30.878Z,10.90
2019-04-05T09:40:01.753Z,10.83
2019-04-05T09:42:32.296Z,10.97
2019-04-05T09:45:03.692Z,11.05
2019-04-05T09:47:34.219Z,10.82
2019-04-05T09:50:06.657Z,10.77
2019-04-05T09:52:39.990Z,10.93
2019-04-05T09:55:11.340Z,11.11
2019-04-05T09:57:42.279Z,11.22
2019-04-05T10:00:20.904Z,11.11
2019-04-05T10:02:51.731Z,11.13
2019-04-05T10:05:22.570Z,11.14
2019-04-05T10:07:55.468Z,11.04
2019-04-05T10:10:25.571Z,11.03
2019-04-05T10:12:56.409Z,11.05
2019-04-05T10:15:27.342Z,11.22
2019-04-05T10:17:58.289Z,11.32
2019-04-05T10:20:29.149Z,11.28
2019-04-05T10:23:00.059Z,11.13
2019-04-05T10:25:30.890Z,11.12
2019-04-05T10:28:01.735Z,11.21
2019-04-05T10:30:32.484Z,11.27
2019-04-05T10:33:03.300Z,11.30
2019-04-05T10:35:34.241Z,11.22
2019-04-05T10:38:05.382Z,11.42
2019-04-05T10:40:36.934Z,11.25
2019-04-05T10:43:07.666Z,11.31
2019-04-05T10:45:38.509Z,11.41
2019-04-05T10:48:09.236Z,11.35
2019-04-05T10:50:39.977Z,11.38
2019-04-05T10:53:10.715Z,11.43
2019-04-05T10:55:41.539Z,11.51
2019-04-05T10:58:12.581Z,11.33
2019-04-05T11:00:43.518Z,11.48
2019-04-05T11:03:14.465Z,11.36
2019-04-05T11:05:45.394Z,11.28
2019-04-05T11:08:16.236Z,11.15
2019-04-05T11:10:47.170Z,11.16
2019-04-05T11:13:17.913Z,11.23
2019-04-05T11:15:48.743Z,11.25
2019-04-05T11:18:21.074Z,11.38
2019-04-05T11:20:52.052Z,11.38
2019-04-05T11:23:22.893Z,11.38
2019-04-05T11:25:53.720Z,11.69
2019-04-05T11:28:24.555Z,11.68
2019-04-05T11:30:55.388Z,11.66
2019-04-05T11:33:26.240Z,11.52
2019-04-05T11:35:57.990Z,11.57
2019-04-05T11:38:28.826Z,11.63
2019-04-05T11:40:59.553Z,11.58
2019-04-05T11:43:31.381Z,11.52
2019-04-05T11:46:02.200Z,11.40
2019-04-05T11:48:35.420Z,11.59
2019-04-05T11:51:05.880Z,11.77
2019-04-05T11:53:36.705Z,11.93
2019-04-05T11:56:14.449Z,11.85
2019-04-05T11:58:41.292Z,11.77
2019-04-05T12:01:16.774Z,11.65
2019-04-05T12:03:47.216Z,11.65
2019-04-05T12:06:17.875Z,11.68
2019-04-05T12:08:48.616Z,11.88
2019-04-05T12:11:19.528Z,11.98
2019-04-05T12:13:50.354Z,11.87
2019-04-05T12:16:21.193Z,11.97
2019-04-05T12:18:51.933Z,12.10
2019-04-05T12:21:22.769Z,12.09
2019-04-05T12:23:53.594Z,11.92
2019-04-05T12:26:24.638Z,11.92
2019-04-05T12:28:55.388Z,11.97
2019-04-05T12:31:26.907Z,12.11
2019-04-05T12:33:57.345Z,12.09
2019-04-05T12:36:28.203Z,12.09
2019-04-05T12:38:59.041Z,12.07
2019-04-05T12:41:32.013Z,12.11
2019-04-05T12:44:01.991Z,12.07
2019-04-05T12:46:32.857Z,12.03
2019-04-05T12:49:03.694Z,12.08
2019-04-05T12:51:34.551Z,12.19
2019-04-05T12:54:05.474Z,12.32
2019-04-05T12:56:36.404Z,12.30
2019-04-05T12:59:07.348Z,12.07
2019-04-05T13:01:38.289Z,12.24
2019-04-05T13:04:09.225Z,12.22
2019-04-05T13:06:42.291Z,12.28
2019-04-05T13:09:13.368Z,12.30
2019-04-05T13:11:44.084Z,12.31
2019-04-05T13:14:16.145Z,12.53
2019-04-05T13:16:49.386Z,12.49
2019-04-05T13:19:18.988Z,12.22
2019-04-05T13:21:49.680Z,12.06
2019-04-05T13:24:20.625Z,12.05
2019-04-05T13:26:51.455Z,12.14
2019-04-05T13:29:22.292Z,12.05
2019-04-05T13:31:53.128Z,12.12
2019-04-05T13:34:26.002Z,11.99
2019-04-05T13:36:59.338Z,12.04
2019-04-05T13:39:30.371Z,12.06
2019-04-05T13:42:01.713Z,12.00
2019-04-05T13:44:33.142Z,11.96
2019-04-05T13:47:06.537Z,12.08
2019-04-05T13:49:38.545Z,12.02
2019-04-05T13:52:11.160Z,11.91
2019-04-05T13:54:41.724Z,11.92
2019-04-05T13:57:12.659Z,12.00
2019-04-05T13:59:44.774Z,12.04
2019-04-05T14:02:15.395Z,11.87
2019-04-05T14:04:48.967Z,11.86
2019-04-05T14:07:23.440Z,11.97
2019-04-05T14:09:52.171Z,12.00
2019-04-05T14:12:22.993Z,11.99
2019-04-05T14:14:53.936Z,11.86
2019-04-05T14:17:24.784Z,11.85
2019-04-05T14:19:56.015Z,12.11
2019-04-05T14:22:26.949Z,12.06
2019-04-05T14:24:58.217Z,11.93
2019-04-05T14:27:29.131Z,11.85
2019-04-05T14:30:00.595Z,11.84
2019-04-05T14:32:32.454Z,11.90
2019-04-05T14:35:03.480Z,11.91
2019-04-05T14:37:33.888Z,11.89
2019-04-05T14:40:07.146Z,11.99
2019-04-05T14:42:37.740Z,11.93
2019-04-05T14:45:08.594Z,11.84
2019-04-05T14:47:41.500Z,11.81
2019-04-05T14:50:11.582Z,11.79
2019-04-05T14:52:42.303Z,11.80
2019-04-05T14:55:13.051Z,11.68
2019-04-05T14:57:45.619Z,11.71
2019-04-05T15:00:17.284Z,11.61
2019-04-05T15:02:47.909Z,11.58
2019-04-05T15:05:20.995Z,11.61
2019-04-05T15:07:54.802Z,11.67
2019-04-05T15:10:25.298Z,11.63
2019-04-05T15:12:56.773Z,11.59
2019-04-05T15:15:27.505Z,11.55
2019-04-05T15:17:58.551Z,11.52
2019-04-05T15:20:29.483Z,11.52
2019-04-05T15:23:00.425Z,11.57
2019-04-05T15:25:31.157Z,11.41
2019-04-05T15:28:02.003Z,11.23
2019-04-05T15:30:32.940Z,11.18
2019-04-05T15:33:04.287Z,11.28
2019-04-05T15:35:34.942Z,11.27
2019-04-05T15:38:05.853Z,11.32
2019-04-05T15:40:36.684Z,11.23
2019-04-05T15:43:07.522Z,11.26
2019-04-05T15:45:38.871Z,11.29
2019-04-05T15:48:09.805Z,11.17
2019-04-05T15:50:42.589Z,11.00
2019-04-05T15:53:13.470Z,10.82
2019-04-05T15:55:44.159Z,10.66
2019-04-05T15:58:15.000Z,10.55
2019-04-05T16:00:46.038Z,10.50
2019-04-05T16:03:16.979Z,10.52
2019-04-05T16:05:47.814Z,10.39
2019-04-05T16:08:18.952Z,10.29
2019-04-05T16:10:49.581Z,10.27
2019-04-05T16:13:20.426Z,10.10
2019-04-05T16:15:51.292Z,10.01
2019-04-05T16:18:24.351Z,9.85
2019-04-05T16:20:57.132Z,9.76
2019-04-05T16:23:27.772Z,9.78
2019-04-05T16:25:58.597Z,9.67
2019-04-05T16:28:29.341Z,9.50
2019-04-05T16:31:00.271Z,9.48
2019-04-05T16:33:31.115Z,9.34
2019-04-05T16:36:01.851Z,9.48
2019-04-05T16:38:32.774Z,9.28
2019-04-05T16:41:03.731Z,9.14
2019-04-05T16:43:34.446Z,8.91
2019-04-05T16:46:05.899Z,9.04
2019-04-05T16:48:36.325Z,9.07
2019-04-05T16:51:07.140Z,9.01
2019-04-05T16:53:39.642Z,8.89
2019-04-05T16:56:10.167Z,8.91
2019-04-05T16:58:40.994Z,8.90
2019-04-05T17:01:11.784Z,8.92
2019-04-05T17:03:42.670Z,8.96
2019-04-05T17:06:13.511Z,8.86
2019-04-05T17:08:45.476Z,8.68
2019-04-05T17:11:16.162Z,8.57
2019-04-05T17:13:48.252Z,8.62
2019-04-05T17:16:18.711Z,8.57
2019-04-05T17:18:49.739Z,8.43
2019-04-05T17:21:20.774Z,8.34
2019-04-05T17:23:51.416Z,8.15
2019-04-05T17:26:22.404Z,8.19
2019-04-05T17:28:53.181Z,8.19
2019-04-05T17:31:24.030Z,8.04
2019-04-05T17:33:54.542Z,8.07
2019-04-05T17:36:25.277Z,7.98
2019-04-05T17:38:56.112Z,7.93
2019-04-05T17:41:26.962Z,7.98
2019-04-05T17:43:57.893Z,8.01
2019-04-05T17:46:28.731Z,8.04
2019-04-05T17:48:59.607Z,7.78
2019-04-05T17:51:30.115Z,7.96
2019-04-05T17:54:00.924Z,8.10
2019-04-05T17:56:31.556Z,7.97
2019-04-05T17:59:02.308Z,7.94
2019-04-05T18:01:33.037Z,7.84
2019-04-05T18:04:03.758Z,7.78
2019-04-05T18:06:34.491Z,7.85
2019-04-05T18:09:06.627Z,7.83
2019-04-05T18:11:37.013Z,7.75
2019-04-05T18:14:07.823Z,7.97
2019-04-05T18:16:38.754Z,7.83
2019-04-05T18:19:09.591Z,7.76
2019-04-05T18:21:40.431Z,7.76
2019-04-05T18:24:11.280Z,7.79
2019-04-05T18:26:42.121Z,7.80
2019-04-05T18:29:12.582Z,7.62
2019-04-05T18:31:42.998Z,7.66
2019-04-05T18:34:13.417Z,7.57
2019-04-05T18:36:44.119Z,7.47
2019-04-05T18:39:15.193Z,7.43
2019-04-05T18:41:45.887Z,7.57
2019-04-05T18:44:16.395Z,7.53
2019-04-05T18:46:46.980Z,7.33
2019-04-05T18:49:17.800Z,7.34
2019-04-05T18:51:48.611Z,7.34
2019-04-05T18:54:19.490Z,7.46
2019-04-05T18:56:49.900Z,7.44
2019-04-05T18:59:20.338Z,7.28
2019-04-05T19:01:50.730Z,7.20
2019-04-05T19:04:21.203Z,7.17
2019-04-05T19:06:51.795Z,7.25
2019-04-05T19:09:22.455Z,7.11
2019-04-05T19:11:52.891Z,7.06
2019-04-05T19:14:23.305Z,7.14
2019-04-05T19:16:53.801Z,7.26
2019-04-05T19:19:24.269Z,7.23
2019-04-05T19:21:54.697Z,7.28
2019-04-05T19:24:25.102Z,7.28
2019-04-05T19:26:55.544Z,7.43
2019-04-05T19:29:26.057Z,7.47
2019-04-05T19:49:42.250Z,6.92
2019-04-05T19:52:12.706Z,6.95
2019-04-05T19:54:43.108Z,6.84
2019-04-05T19:57:13.695Z,6.72
2019-04-05T19:59:44.209Z,6.59
2019-04-05T20:02:14.718Z,6.53
2019-04-05T20:04:45.201Z,6.56
2019-04-05T20:07:15.722Z,6.50
2019-04-05T20:09:46.203Z,6.38
2019-04-05T20:12:16.730Z,6.25
2019-04-05T20:14:47.145Z,6.20
2019-04-05T20:17:17.707Z,6.39
2019-04-05T20:19:48.235Z,6.38
2019-04-05T20:22:18.757Z,6.29
2019-04-05T20:24:49.170Z,6.24
2019-04-05T20:27:19.597Z,6.18
2019-04-05T20:29:50.034Z,6.15
2019-04-05T20:32:20.500Z,6.07
2019-04-05T20:34:50.947Z,6.11
2019-04-05T20:37:21.670Z,6.11
2019-04-05T20:39:52.615Z,6.08
2019-04-05T20:42:23.447Z,6.07
2019-04-05T20:44:54.284Z,6.07
2019-04-05T20:47:25.227Z,6.18
2019-04-05T20:49:56.134Z,6.26
2019-04-05T20:52:26.901Z,6.32
2019-04-05T20:54:57.382Z,6.17
2019-04-05T20:57:27.908Z,6.11
2019-04-05T21:00:00.158Z,6.10
2019-04-05T21:02:30.587Z,6.22
2019-04-05T21:05:01.174Z,6.15
2019-04-05T21:07:31.715Z,6.21
2019-04-05T21:10:02.171Z,6.19
2019-04-05T21:12:32.730Z,6.07
2019-04-05T21:15:03.474Z,6.00
2019-04-05T21:17:34.045Z,6.12
2019-04-05T21:20:06.081Z,6.05
2019-04-05T21:22:36.812Z,6.07
2019-04-05T21:25:08.145Z,6.02
2019-04-05T21:27:38.857Z,6.07
2019-04-05T21:30:11.654Z,6.06
2019-04-05T21:32:42.261Z,5.99
2019-04-05T21:35:12.936Z,5.93
2019-04-05T21:37:43.648Z,6.06
2019-04-05T21:40:14.462Z,6.19
2019-04-05T21:42:45.103Z,6.11
2019-04-05T21:45:15.736Z,6.14
2019-04-05T21:47:46.727Z,6.18
2019-04-05T21:50:17.393Z,6.07
2019-04-05T21:52:48.126Z,6.06
2019-04-05T21:55:18.718Z,6.09
2019-04-05T21:57:49.407Z,6.08
2019-04-05T22:00:28.793Z,6.16
2019-04-05T22:02:59.830Z,6.06
2019-04-05T22:05:30.776Z,6.03
2019-04-05T22:08:01.604Z,5.93
2019-04-05T22:10:32.565Z,5.83
2019-04-05T22:13:04.558Z,5.72
2019-04-05T22:15:35.646Z,5.69
2019-04-05T22:18:06.255Z,5.59
2019-04-05T22:20:36.948Z,5.63
2019-04-05T22:23:07.779Z,5.64
2019-04-05T22:25:38.621Z,5.59
2019-04-05T22:28:09.248Z,5.57
2019-04-05T22:30:40.186Z,5.70
2019-04-05T22:33:11.134Z,5.52
2019-04-05T22:35:41.766Z,5.48
2019-04-05T22:38:12.474Z,5.61
2019-04-05T22:40:43.125Z,5.49
2019-04-05T22:43:13.865Z,5.57
2019-04-05T22:45:44.693Z,5.56
2019-04-05T22:48:15.310Z,5.45
2019-04-05T22:50:45.956Z,5.46
2019-04-05T22:53:16.707Z,5.84
2019-04-05T22:55:47.415Z,5.83
2019-04-05T22:58:18.468Z,5.70
2019-04-05T23:00:49.109Z,5.80
2019-04-05T23:03:19.832Z,5.79
2019-04-05T23:05:50.445Z,5.74
2019-04-05T23:08:21.225Z,5.75
2019-04-05T23:10:51.933Z,5.71
2019-04-05T23:13:22.571Z,5.66
2019-04-05T23:15:53.306Z,5.66
2019-04-05T23:18:23.930Z,5.71
2019-04-05T23:20:54.652Z,5.74
2019-04-05T23:23:25.428Z,5.64
2019-04-05T23:25:56.060Z,5.59
2019-04-05T23:28:26.646Z,5.60
2019-04-05T23:30:57.273Z,5.58
2019-04-05T23:33:30.868Z,5.49
2019-04-05T23:36:01.519Z,5.58
2019-04-05T23:38:32.316Z,5.55
2019-04-05T23:41:04.285Z,5.47
2019-04-05T23:43:35.160Z,5.50
2019-04-05T23:46:05.756Z,5.42
2019-04-05T23:48:36.452Z,5.35
2019-04-05T23:51:07.166Z,5.33
2019-04-05T23:53:37.905Z,5.47
2019-04-05T23:56:08.613Z,5.50
2019-04-05T23:58:39.230Z,5.41
